createdAt,value
2023-04-15T00:01:07.847Z,3.63
2023-04-15T00:03:35.074Z,3.80
2023-04-15T00:06:02.432Z,3.78
2023-04-15T00:08:30.115Z,3.95
2023-04-15T00:10:56.826Z,3.53
2023-04-15T00:13:23.652Z,4.15
2023-04-15T00:15:50.296Z,3.83
2023-04-15T00:18:16.950Z,3.60
2023-04-15T00:20:43.542Z,3.42
2023-04-15T00:23:10.119Z,3.90
2023-04-15T00:25:36.804Z,3.50
2023-04-15T00:28:03.994Z,3.67
2023-04-15T00:30:31.451Z,3.78
2023-04-15T00:32:58.228Z,3.63
2023-04-15T00:35:25.515Z,3.85
2023-04-15T00:37:52.183Z,3.97
2023-04-15T00:40:21.050Z,3.45
2023-04-15T00:42:47.916Z,4.43
2023-04-15T00:45:14.598Z,3.88
2023-04-15T00:47:43.075Z,3.65
2023-04-15T00:50:11.171Z,3.95
2023-04-15T00:52:38.278Z,3.70
2023-04-15T00:55:06.060Z,3.85
2023-04-15T00:57:33.315Z,4.20
2023-04-15T01:00:01.141Z,3.75
2023-04-15T01:02:28.191Z,3.92
2023-04-15T01:04:56.756Z,3.92
2023-04-15T01:07:23.430Z,3.60
2023-04-15T01:09:50.247Z,3.85
2023-04-15T01:12:17.625Z,3.60
2023-04-15T01:14:44.379Z,4.05
2023-04-15T01:17:11.270Z,4.10
2023-04-15T01:19:40.608Z,4.20
2023-04-15T01:22:09.213Z,4.28
2023-04-15T01:24:38.345Z,4.10
2023-04-15T01:27:05.424Z,4.00
2023-04-15T01:29:33.305Z,4.30
2023-04-15T01:32:00.292Z,4.25
2023-04-15T01:34:27.439Z,4.20
2023-04-15T01:36:54.384Z,4.00
2023-04-15T01:39:21.814Z,4.75
2023-04-15T01:41:48.646Z,4.75
2023-04-15T01:44:16.446Z,4.57
2023-04-15T01:46:43.150Z,4.25
2023-04-15T01:49:09.808Z,4.85
2023-04-15T01:51:36.463Z,5.05
2023-04-15T01:54:03.194Z,5.40
2023-04-15T01:56:30.160Z,5.07
2023-04-15T01:58:56.992Z,4.90
2023-04-15T02:01:23.866Z,5.80
2023-04-15T02:03:50.781Z,6.10
2023-04-15T02:06:18.380Z,5.85
2023-04-15T02:08:45.206Z,6.35
2023-04-15T02:11:11.997Z,5.68
2023-04-15T02:13:38.660Z,6.60
2023-04-15T02:16:15.804Z,6.55
2023-04-15T02:18:45.260Z,6.57
2023-04-15T02:21:11.855Z,7.03
2023-04-15T02:23:38.534Z,6.60
2023-04-15T02:26:05.243Z,8.15
2023-04-15T02:28:31.879Z,7.93
2023-04-15T02:30:59.876Z,7.47
2023-04-15T02:33:26.605Z,8.30
2023-04-15T02:35:53.259Z,8.10
2023-04-15T02:38:19.970Z,8.80
2023-04-15T02:40:49.603Z,9.05
2023-04-15T02:43:17.227Z,9.77
2023-04-15T02:45:45.174Z,9.98
2023-04-15T02:48:11.835Z,10.65
2023-04-15T02:50:41.506Z,10.73
2023-04-15T02:53:10.262Z,11.27
2023-04-15T02:55:36.939Z,11.27
2023-04-15T02:58:03.773Z,11.25
2023-04-15T03:00:30.538Z,12.30
2023-04-15T03:03:05.581Z,12.02
2023-04-15T03:05:32.602Z,12.52
2023-04-15T03:08:01.285Z,12.75
2023-04-15T03:10:28.456Z,12.70
2023-04-15T03:12:55.159Z,12.85
2023-04-15T03:15:23.722Z,12.85
2023-04-15T03:17:52.868Z,14.43
2023-04-15T03:20:19.876Z,14.43
2023-04-15T03:22:47.984Z,15.77
2023-04-15T03:25:14.830Z,16.50
2023-04-15T03:27:41.890Z,17.02
2023-04-15T03:30:09.338Z,16.80
2023-04-15T03:32:38.320Z,15.70
2023-04-15T03:35:06.801Z,15.48
2023-04-15T03:37:33.385Z,16.35
2023-04-15T03:40:00.140Z,16.80
2023-04-15T03:42:27.034Z,16.67
2023-04-15T03:44:53.611Z,16.88
2023-04-15T03:47:20.459Z,17.05
2023-04-15T03:49:47.258Z,16.35
2023-04-15T03:52:13.944Z,16.95
2023-04-15T03:54:40.514Z,16.58
2023-04-15T03:57:07.185Z,17.08
2023-04-15T03:59:33.774Z,16.45
2023-04-15T04:02:00.473Z,17.00
2023-04-15T04:04:27.193Z,17.15
2023-04-15T04:06:53.896Z,18.13
2023-04-15T04:09:20.604Z,18.30
2023-04-15T04:11:47.245Z,19.33
2023-04-15T04:14:13.816Z,18.80
2023-04-15T04:16:40.610Z,20.48
2023-04-15T04:19:07.664Z,19.33
2023-04-15T04:21:34.587Z,19.38
2023-04-15T04:24:01.626Z,21.65
2023-04-15T04:26:28.291Z,20.08
2023-04-15T04:28:54.923Z,21.52
2023-04-15T04:31:21.909Z,22.15
2023-04-15T04:33:48.565Z,22.17
2023-04-15T04:36:15.134Z,24.58
2023-04-15T04:38:41.808Z,27.10
2023-04-15T04:41:08.436Z,24.08
2023-04-15T04:43:35.040Z,23.88
2023-04-15T04:46:01.835Z,23.17
2023-04-15T04:48:28.516Z,24.60
2023-04-15T04:50:55.209Z,24.83
2023-04-15T04:53:22.086Z,24.92
2023-04-15T04:55:48.666Z,25.25
2023-04-15T04:58:15.285Z,25.10
2023-04-15T05:00:42.122Z,24.80
2023-04-15T05:03:09.103Z,24.55
2023-04-15T05:05:37.030Z,25.85
2023-04-15T05:08:04.091Z,26.33
2023-04-15T05:10:30.728Z,25.42
2023-04-15T05:12:57.747Z,25.48
2023-04-15T05:15:24.704Z,25.27
2023-04-15T05:17:51.660Z,27.23
2023-04-15T05:20:18.446Z,25.63
2023-04-15T05:22:45.086Z,27.35
2023-04-15T05:25:12.437Z,27.10
2023-04-15T05:27:39.134Z,27.27
2023-04-15T05:30:07.264Z,27.15
2023-04-15T05:32:33.931Z,28.73
2023-04-15T05:35:00.661Z,28.45
2023-04-15T05:37:27.266Z,29.33
2023-04-15T05:39:53.930Z,28.95
2023-04-15T05:42:20.879Z,30.15
2023-04-15T05:44:47.544Z,29.52
2023-04-15T05:47:14.137Z,30.00
2023-04-15T05:49:40.850Z,31.38
2023-04-15T05:52:07.529Z,30.85
2023-04-15T05:54:34.182Z,30.33
2023-04-15T05:57:00.964Z,30.55
2023-04-15T05:59:28.430Z,30.67
2023-04-15T06:01:55.265Z,30.20
2023-04-15T06:04:22.862Z,31.17
2023-04-15T06:06:49.620Z,29.83
2023-04-15T06:09:16.874Z,30.90
2023-04-15T06:11:43.549Z,29.42
2023-04-15T06:14:10.219Z,31.63
2023-04-15T06:16:37.473Z,32.35
2023-04-15T06:19:04.269Z,30.52
2023-04-15T06:21:31.620Z,30.65
2023-04-15T06:24:01.469Z,31.45
2023-04-15T06:26:28.396Z,30.77
2023-04-15T06:28:55.768Z,30.42
2023-04-15T06:31:22.741Z,32.75
2023-04-15T06:33:49.529Z,32.38
2023-04-15T06:36:16.373Z,31.38
2023-04-15T06:38:43.052Z,31.35
2023-04-15T06:41:09.766Z,30.17
2023-04-15T06:43:36.435Z,30.80
2023-04-15T06:46:03.063Z,30.55
2023-04-15T06:48:29.734Z,31.70
2023-04-15T06:50:56.562Z,30.10
2023-04-15T06:53:23.179Z,31.98
2023-04-15T06:55:49.794Z,30.98
2023-04-15T06:58:16.410Z,31.63
2023-04-15T07:00:43.140Z,31.63
2023-04-15T07:03:11.263Z,32.75
2023-04-15T07:05:38.404Z,32.13
2023-04-15T07:08:06.796Z,33.08
2023-04-15T07:10:34.382Z,33.78
2023-04-15T07:13:01.833Z,33.55
2023-04-15T07:15:28.796Z,33.10
2023-04-15T07:17:56.245Z,33.05
2023-04-15T07:20:23.184Z,32.33
2023-04-15T07:22:49.854Z,35.40
2023-04-15T07:25:17.716Z,34.88
2023-04-15T07:27:44.586Z,34.17
2023-04-15T07:30:12.559Z,35.65
2023-04-15T07:32:39.480Z,35.08
2023-04-15T07:35:06.472Z,34.42
2023-04-15T07:37:33.626Z,34.00
2023-04-15T07:40:00.375Z,34.60
2023-04-15T07:42:27.601Z,32.28
2023-04-15T07:44:54.269Z,35.03
2023-04-15T07:47:21.327Z,32.70
2023-04-15T07:49:48.080Z,34.15
2023-04-15T07:52:14.841Z,33.80
2023-04-15T07:54:41.753Z,33.75
2023-04-15T07:57:08.746Z,33.92
2023-04-15T07:59:35.398Z,35.08
2023-04-15T08:02:03.355Z,33.60
2023-04-15T08:04:30.219Z,35.03
2023-04-15T08:06:57.999Z,34.17
2023-04-15T08:09:24.716Z,35.78
2023-04-15T08:11:53.259Z,35.00
2023-04-15T08:14:19.913Z,35.15
2023-04-15T08:16:46.946Z,36.08
2023-04-15T08:19:13.664Z,35.53
2023-04-15T08:21:41.047Z,36.53
2023-04-15T08:24:08.104Z,35.65
2023-04-15T08:26:34.766Z,35.90
2023-04-15T08:29:01.748Z,36.10
2023-04-15T08:31:30.439Z,35.45
2023-04-15T08:33:57.790Z,36.13
2023-04-15T08:36:24.423Z,36.70
2023-04-15T08:38:51.191Z,36.40
2023-04-15T08:41:23.712Z,39.05
2023-04-15T08:43:54.760Z,37.83
2023-04-15T08:46:22.039Z,38.83
2023-04-15T08:48:49.739Z,39.00
2023-04-15T08:51:17.657Z,37.38
2023-04-15T08:53:46.554Z,38.22
2023-04-15T08:56:16.757Z,41.47
2023-04-15T08:58:47.102Z,37.92
2023-04-15T09:01:13.938Z,37.00
2023-04-15T09:03:41.741Z,38.25
2023-04-15T09:06:08.743Z,38.08
2023-04-15T09:08:35.887Z,37.58
2023-04-15T09:11:03.286Z,35.58
2023-04-15T09:13:30.556Z,37.30
2023-04-15T09:16:00.096Z,35.70
2023-04-15T09:18:36.057Z,33.63
2023-04-15T09:21:11.305Z,32.78
2023-04-15T09:23:40.008Z,31.02
2023-04-15T09:26:07.146Z,31.40
2023-04-15T09:28:41.021Z,30.85
2023-04-15T09:31:07.856Z,30.00
2023-04-15T09:33:34.579Z,29.13
2023-04-15T09:36:02.140Z,28.42
2023-04-15T09:38:29.259Z,27.13
2023-04-15T09:40:56.082Z,27.00
2023-04-15T09:43:23.137Z,27.25
2023-04-15T09:45:52.435Z,26.92
2023-04-15T09:48:27.038Z,25.88
2023-04-15T09:50:54.066Z,24.50
2023-04-15T09:53:22.667Z,23.55
2023-04-15T09:55:55.275Z,25.60
2023-04-15T09:58:23.572Z,25.70
2023-04-15T10:00:52.135Z,26.20
2023-04-15T10:03:30.052Z,24.85
2023-04-15T10:05:58.916Z,25.88
2023-04-15T10:08:30.523Z,24.73
2023-04-15T10:10:57.927Z,21.88
2023-04-15T10:13:26.306Z,23.30
2023-04-15T10:15:53.555Z,19.85
2023-04-15T10:18:21.971Z,21.52
2023-04-15T10:20:49.102Z,20.73
2023-04-15T10:23:17.383Z,20.58
2023-04-15T10:25:46.178Z,19.45
2023-04-15T10:28:14.364Z,20.05
2023-04-15T10:30:41.806Z,18.58
2023-04-15T10:33:11.161Z,20.67
2023-04-15T10:35:39.308Z,18.25
2023-04-15T10:38:30.854Z,18.10
2023-04-15T10:41:12.772Z,18.00
2023-04-15T10:43:39.603Z,17.20
2023-04-15T10:46:06.709Z,15.82
2023-04-15T10:48:33.588Z,13.82
2023-04-15T10:51:03.826Z,13.98
2023-04-15T10:53:31.416Z,13.02
2023-04-15T10:55:58.766Z,14.82
2023-04-15T10:58:26.095Z,14.25
2023-04-15T11:00:53.815Z,13.68
2023-04-15T11:03:40.566Z,15.23
2023-04-15T11:06:07.591Z,15.88
2023-04-15T11:09:02.542Z,15.20
2023-04-15T11:12:08.361Z,15.85
2023-04-15T11:14:39.655Z,15.85
2023-04-15T11:17:06.340Z,15.52
2023-04-15T11:19:38.028Z,15.55
2023-04-15T11:22:09.094Z,15.90
2023-04-15T11:24:36.794Z,15.30
2023-04-15T11:27:03.561Z,16.08
2023-04-15T11:29:34.538Z,15.82
2023-04-15T11:32:09.940Z,15.40
2023-04-15T11:34:37.093Z,14.52
2023-04-15T11:37:07.903Z,13.68
2023-04-15T11:39:34.606Z,14.35
2023-04-15T11:42:01.264Z,14.57
2023-04-15T11:44:27.984Z,14.80
2023-04-15T11:46:55.824Z,14.98
2023-04-15T11:49:33.944Z,14.30
2023-04-15T11:52:01.258Z,15.32
2023-04-15T11:54:27.896Z,14.18
2023-04-15T11:56:54.697Z,14.00
2023-04-15T11:59:21.376Z,14.65
2023-04-15T12:01:48.070Z,14.27
2023-04-15T12:04:17.765Z,15.23
2023-04-15T12:06:45.149Z,14.13
2023-04-15T12:09:20.208Z,14.82
2023-04-15T12:11:47.839Z,14.48
2023-04-15T12:14:26.600Z,13.50
2023-04-15T12:16:56.643Z,14.40
2023-04-15T12:19:29.437Z,15.00
2023-04-15T12:22:01.905Z,15.00
2023-04-15T12:24:31.998Z,14.52
2023-04-15T12:27:05.617Z,16.05
2023-04-15T12:29:33.200Z,15.68
2023-04-15T12:32:07.734Z,15.40
2023-04-15T12:34:38.676Z,16.00
2023-04-15T12:37:09.512Z,15.68
2023-04-15T12:39:37.783Z,15.50
2023-04-15T12:42:06.043Z,14.85
2023-04-15T12:44:33.660Z,16.05
2023-04-15T12:47:00.885Z,15.48
2023-04-15T12:49:28.176Z,15.73
2023-04-15T12:52:00.191Z,16.38
2023-04-15T12:54:27.835Z,14.55
2023-04-15T12:56:55.523Z,15.20
2023-04-15T12:59:24.145Z,14.40
2023-04-15T13:01:52.373Z,14.10
2023-04-15T13:04:20.106Z,14.68
2023-04-15T13:06:46.956Z,13.90
2023-04-15T13:09:13.938Z,13.32
2023-04-15T13:11:40.873Z,13.50
2023-04-15T13:14:09.235Z,14.80
2023-04-15T13:16:36.203Z,13.88
2023-04-15T13:19:04.139Z,13.65
2023-04-15T13:21:35.051Z,12.60
2023-04-15T13:24:02.492Z,12.30
2023-04-15T13:26:29.341Z,12.57
2023-04-15T13:28:56.337Z,12.02
2023-04-15T13:31:23.029Z,11.57
2023-04-15T13:33:49.693Z,10.68
2023-04-15T13:36:16.435Z,11.20
2023-04-15T13:38:43.193Z,11.13
2023-04-15T13:41:09.890Z,10.20
2023-04-15T13:43:36.685Z,10.32
2023-04-15T13:46:03.814Z,10.88
2023-04-15T13:48:30.650Z,9.95
2023-04-15T13:50:57.338Z,10.88
2023-04-15T13:53:38.150Z,10.50
2023-04-15T13:56:09.582Z,9.98
2023-04-15T13:58:40.885Z,10.45
2023-04-15T14:01:07.776Z,10.68
2023-04-15T14:03:36.423Z,10.90
2023-04-15T14:06:03.662Z,11.27
2023-04-15T14:08:30.783Z,11.43
2023-04-15T14:10:57.779Z,11.30
2023-04-15T14:13:24.633Z,10.27
2023-04-15T14:15:51.310Z,10.35
2023-04-15T14:18:17.929Z,9.73
2023-04-15T14:20:44.567Z,10.35
2023-04-15T14:23:11.187Z,11.55
2023-04-15T14:25:39.310Z,10.65
2023-04-15T14:28:06.289Z,11.30
2023-04-15T14:30:33.288Z,9.90
2023-04-15T14:33:00.168Z,10.98
2023-04-15T14:35:27.390Z,10.25
2023-04-15T14:37:55.522Z,10.15
2023-04-15T14:40:22.473Z,10.25
2023-04-15T14:42:49.314Z,10.70
2023-04-15T14:45:16.258Z,10.38
2023-04-15T14:47:43.026Z,10.77
2023-04-15T14:50:10.501Z,9.88
2023-04-15T14:52:39.997Z,10.35
2023-04-15T14:55:08.193Z,9.90
2023-04-15T14:57:34.899Z,10.63
2023-04-15T15:00:01.813Z,11.18
2023-04-15T15:02:38.563Z,10.93
2023-04-15T15:05:07.375Z,11.68
2023-04-15T15:07:34.224Z,11.63
2023-04-15T15:10:00.900Z,10.05
2023-04-15T15:12:27.610Z,11.55
2023-04-15T15:14:55.385Z,10.52
2023-04-15T15:17:22.211Z,10.55
2023-04-15T15:19:49.068Z,10.30
2023-04-15T15:22:15.689Z,10.57
2023-04-15T15:24:42.310Z,10.52
2023-04-15T15:27:08.947Z,10.95
2023-04-15T15:29:35.652Z,11.45
2023-04-15T15:32:02.271Z,11.88
2023-04-15T15:34:28.904Z,10.73
2023-04-15T15:36:56.827Z,11.85
2023-04-15T15:39:23.945Z,11.93
2023-04-15T15:41:50.610Z,11.82
2023-04-15T15:44:17.390Z,10.68
2023-04-15T15:46:44.179Z,11.25
2023-04-15T15:49:11.380Z,12.45
2023-04-15T15:51:38.144Z,12.88
2023-04-15T15:54:04.797Z,12.85
2023-04-15T15:56:31.489Z,12.38
2023-04-15T15:58:58.102Z,11.95
2023-04-15T16:01:24.810Z,13.65
2023-04-15T16:03:51.715Z,13.75
2023-04-15T16:06:18.536Z,13.90
2023-04-15T16:08:45.158Z,14.38
2023-04-15T16:11:11.797Z,14.52
2023-04-15T16:13:38.778Z,15.10
2023-04-15T16:16:05.734Z,14.23
2023-04-15T16:18:34.605Z,15.32
2023-04-15T16:21:02.010Z,15.05
2023-04-15T16:23:28.738Z,16.25
2023-04-15T16:25:55.421Z,15.88
2023-04-15T16:28:26.816Z,17.20
2023-04-15T16:30:55.099Z,16.70
2023-04-15T16:33:21.847Z,15.88
2023-04-15T16:35:48.468Z,17.08
2023-04-15T16:38:15.585Z,17.50
2023-04-15T16:40:42.488Z,17.02
2023-04-15T16:43:11.243Z,16.90
2023-04-15T16:45:38.733Z,17.33
2023-04-15T16:48:05.925Z,17.98
2023-04-15T16:50:32.736Z,18.10
2023-04-15T16:52:59.409Z,17.00
2023-04-15T16:55:26.234Z,17.70
2023-04-15T16:58:01.642Z,17.73
2023-04-15T17:00:31.453Z,17.00
2023-04-15T17:02:58.939Z,17.08
2023-04-15T17:05:27.612Z,17.20
2023-04-15T17:07:54.628Z,16.95
2023-04-15T17:10:21.312Z,17.08
2023-04-15T17:12:48.070Z,18.50
2023-04-15T17:15:14.740Z,16.90
2023-04-15T17:17:41.470Z,17.73
2023-04-15T17:20:08.411Z,17.83
2023-04-15T17:22:35.147Z,17.13
2023-04-15T17:25:02.125Z,16.58
2023-04-15T17:27:29.848Z,17.98
2023-04-15T17:29:56.917Z,18.38
2023-04-15T17:32:25.249Z,17.88
2023-04-15T17:34:52.018Z,17.13
2023-04-15T17:37:18.742Z,17.90
2023-04-15T17:39:45.745Z,18.73
2023-04-15T17:42:13.340Z,18.33
2023-04-15T17:44:40.059Z,18.20
2023-04-15T17:47:06.803Z,17.85
2023-04-15T17:49:34.242Z,17.73
2023-04-15T17:52:01.180Z,17.75
2023-04-15T17:54:28.093Z,16.80
2023-04-15T17:56:54.941Z,18.48
2023-04-15T17:59:21.578Z,18.73
2023-04-15T18:01:48.430Z,17.45
2023-04-15T18:04:15.758Z,17.55
2023-04-15T18:06:42.723Z,18.25
2023-04-15T18:09:09.404Z,18.58
2023-04-15T18:11:38.997Z,16.27
2023-04-15T18:14:05.897Z,16.63
2023-04-15T18:16:32.776Z,17.40
2023-04-15T18:18:59.587Z,17.02
2023-04-15T18:21:27.092Z,16.38
2023-04-15T18:23:53.771Z,16.80
2023-04-15T18:26:21.833Z,17.05
2023-04-15T18:28:48.555Z,16.63
2023-04-15T18:31:15.599Z,16.15
2023-04-15T18:33:42.450Z,16.92
2023-04-15T18:36:10.280Z,16.13
2023-04-15T18:38:36.967Z,16.92
2023-04-15T18:41:05.316Z,17.23
2023-04-15T18:43:32.443Z,17.48
2023-04-15T18:46:00.053Z,16.88
2023-04-15T18:48:27.244Z,17.50
2023-04-15T18:50:54.195Z,16.85
2023-04-15T18:53:21.351Z,16.65
2023-04-15T18:55:48.013Z,17.05
2023-04-15T18:58:14.607Z,16.55
2023-04-15T19:00:43.715Z,16.30
2023-04-15T19:03:11.436Z,17.27
2023-04-15T19:05:38.307Z,14.90
2023-04-15T19:08:05.008Z,15.20
2023-04-15T19:10:31.700Z,15.77
2023-04-15T19:12:58.288Z,15.82
2023-04-15T19:15:24.928Z,15.05
2023-04-15T19:17:51.516Z,16.33
2023-04-15T19:20:18.227Z,15.10
2023-04-15T19:22:45.151Z,14.68
2023-04-15T19:25:11.850Z,16.92
2023-04-15T19:27:38.488Z,15.45
2023-04-15T19:30:06.575Z,15.27
2023-04-15T19:32:34.669Z,14.88
2023-04-15T19:35:01.580Z,15.27
2023-04-15T19:37:28.264Z,14.57
2023-04-15T19:39:56.603Z,14.70
2023-04-15T19:42:23.251Z,15.02
2023-04-15T19:44:49.896Z,15.23
2023-04-15T19:47:16.682Z,15.27
2023-04-15T19:49:43.508Z,14.63
2023-04-15T19:52:10.171Z,15.15
2023-04-15T19:54:37.110Z,14.07
2023-04-15T19:57:03.817Z,14.10
2023-04-15T19:59:30.459Z,14.23
2023-04-15T20:01:57.379Z,15.30
2023-04-15T20:04:24.079Z,14.23
2023-04-15T20:06:50.935Z,14.05
2023-04-15T20:09:17.586Z,15.38
2023-04-15T20:12:47.751Z,15.20
2023-04-15T20:14:30.983Z,14.60
2023-04-15T20:16:57.637Z,14.55
2023-04-15T20:19:24.318Z,14.02
2023-04-15T20:21:52.088Z,14.50
2023-04-15T20:24:20.233Z,14.80
2023-04-15T20:26:47.183Z,14.95
2023-04-15T20:29:14.090Z,15.07
2023-04-15T20:31:41.077Z,14.98
2023-04-15T20:34:09.537Z,15.85
2023-04-15T20:36:38.022Z,14.98
2023-04-15T20:39:04.906Z,14.32
2023-04-15T20:41:31.712Z,15.80
2023-04-15T20:43:58.322Z,15.48
2023-04-15T20:46:27.301Z,15.48
2023-04-15T20:48:54.696Z,15.85
2023-04-15T20:51:21.374Z,15.93
2023-04-15T20:53:48.079Z,15.90
2023-04-15T20:56:14.696Z,15.95
2023-04-15T20:58:41.317Z,16.02
2023-04-15T21:01:08.004Z,15.75
2023-04-15T21:03:35.000Z,15.50
2023-04-15T21:06:01.842Z,16.35
2023-04-15T21:08:31.546Z,15.95
2023-04-15T21:10:58.435Z,16.50
2023-04-15T21:13:25.221Z,16.27
2023-04-15T21:15:54.059Z,15.88
2023-04-15T21:18:21.872Z,15.40
2023-04-15T21:21:01.877Z,16.02
2023-04-15T21:23:29.827Z,16.55
2023-04-15T21:25:57.201Z,16.27
2023-04-15T21:28:23.809Z,16.52
2023-04-15T21:30:50.691Z,16.65
2023-04-15T21:33:20.251Z,17.08
2023-04-15T21:35:46.898Z,16.35
2023-04-15T21:38:14.118Z,16.15
2023-04-15T21:40:41.102Z,16.20
2023-04-15T21:43:08.067Z,15.85
2023-04-15T21:45:35.971Z,16.73
2023-04-15T21:48:07.744Z,17.80
2023-04-15T21:50:38.000Z,16.83
2023-04-15T21:53:07.263Z,17.05
2023-04-15T21:55:33.970Z,16.95
2023-04-15T21:58:00.608Z,16.60
2023-04-15T22:00:27.646Z,17.50
2023-04-15T22:02:54.433Z,16.90
2023-04-15T22:05:21.360Z,16.77
2023-04-15T22:07:48.031Z,16.55
2023-04-15T22:10:14.705Z,17.33
2023-04-15T22:12:44.590Z,17.77
2023-04-15T22:15:11.334Z,17.35
2023-04-15T22:17:38.158Z,17.00
2023-04-15T22:20:05.254Z,16.92
2023-04-15T22:22:43.562Z,16.67
2023-04-15T22:25:11.463Z,16.00
2023-04-15T22:27:38.116Z,16.75
2023-04-15T22:30:05.602Z,17.30
2023-04-15T22:32:32.238Z,16.35
2023-04-15T22:34:58.865Z,17.20
2023-04-15T22:37:25.583Z,17.70
2023-04-15T22:39:52.220Z,16.52
2023-04-15T22:42:18.834Z,17.05
2023-04-15T22:44:45.610Z,17.40
2023-04-15T22:47:12.249Z,17.75
2023-04-15T22:49:39.488Z,17.10
2023-04-15T22:52:06.453Z,17.23
2023-04-15T22:54:33.771Z,17.85
2023-04-15T22:57:01.063Z,18.20
2023-04-15T22:59:27.740Z,18.42
2023-04-15T23:01:54.642Z,18.55
2023-04-15T23:04:23.390Z,18.73
2023-04-15T23:06:51.179Z,19.85
2023-04-15T23:09:18.188Z,18.48
2023-04-15T23:11:44.764Z,18.60
2023-04-15T23:14:11.382Z,18.63
2023-04-15T23:16:38.089Z,18.85
2023-04-15T23:19:04.733Z,18.52
2023-04-15T23:21:31.459Z,18.55
2023-04-15T23:23:58.101Z,18.65
2023-04-15T23:26:24.818Z,17.50
2023-04-15T23:28:51.404Z,18.63
2023-04-15T23:31:18.012Z,17.90
2023-04-15T23:33:44.634Z,17.48
2023-04-15T23:36:11.258Z,17.27
2023-04-15T23:38:38.938Z,18.33
2023-04-15T23:41:05.610Z,16.83
2023-04-15T23:43:32.287Z,17.38
2023-04-15T23:45:58.924Z,16.88
2023-04-15T23:48:25.564Z,18.02
2023-04-15T23:50:52.254Z,16.52
2023-04-15T23:53:19.010Z,17.38
2023-04-15T23:55:45.687Z,16.95
2023-04-15T23:58:12.301Z,17.40
